createdAt,value
2023-03-15T00:01:18.674Z,1.60
2023-03-15T00:03:46.208Z,1.87
2023-03-15T00:06:13.291Z,1.50
2023-03-15T00:08:39.706Z,1.67
2023-03-15T00:11:07.000Z,2.30
2023-03-15T00:13:33.815Z,1.87
2023-03-15T00:16:03.623Z,1.60
2023-03-15T00:18:30.757Z,1.67
2023-03-15T00:20:57.798Z,2.50
2023-03-15T00:23:24.148Z,1.50
2023-03-15T00:25:52.064Z,1.50
2023-03-15T00:28:18.747Z,1.40
2023-03-15T00:30:45.529Z,1.43
2023-03-15T00:33:14.112Z,1.53
2023-03-15T00:35:43.352Z,1.57
2023-03-15T00:38:10.691Z,1.57
2023-03-15T00:40:38.089Z,1.50
2023-03-15T00:43:04.635Z,1.63
2023-03-15T00:45:31.159Z,2.23
2023-03-15T00:47:57.476Z,1.70
2023-03-15T00:50:23.885Z,1.77
2023-03-15T00:52:50.451Z,1.20
2023-03-15T00:55:19.220Z,1.50
2023-03-15T00:57:46.512Z,2.17
2023-03-15T01:00:16.969Z,2.07
2023-03-15T01:02:43.572Z,2.30
2023-03-15T01:05:10.760Z,2.03
2023-03-15T01:07:37.110Z,1.83
2023-03-15T01:10:05.492Z,1.90
2023-03-15T01:12:33.243Z,1.50
2023-03-15T01:15:00.690Z,2.37
2023-03-15T01:17:27.300Z,1.77
2023-03-15T01:19:53.900Z,2.40
2023-03-15T01:22:21.029Z,1.97
2023-03-15T01:24:47.402Z,1.83
2023-03-15T01:27:13.760Z,2.60
2023-03-15T01:29:40.580Z,2.60
2023-03-15T01:32:07.686Z,2.10
2023-03-15T01:34:35.048Z,1.90
2023-03-15T01:37:02.835Z,2.20
2023-03-15T01:39:30.836Z,1.90
2023-03-15T01:41:57.384Z,2.57
2023-03-15T01:44:24.180Z,1.90
2023-03-15T01:46:51.824Z,2.17
2023-03-15T01:49:27.348Z,2.60
2023-03-15T01:52:12.879Z,2.20
2023-03-15T01:54:42.231Z,2.30
2023-03-15T01:57:10.573Z,1.80
2023-03-15T01:59:43.055Z,1.80
2023-03-15T02:02:09.748Z,1.60
2023-03-15T02:04:50.071Z,2.00
2023-03-15T02:07:18.052Z,1.97
2023-03-15T02:09:54.343Z,1.97
2023-03-15T02:12:20.701Z,1.80
2023-03-15T02:14:49.412Z,3.17
2023-03-15T02:17:15.965Z,2.17
2023-03-15T02:20:05.833Z,2.60
2023-03-15T02:22:55.748Z,2.77
2023-03-15T02:25:39.707Z,2.60
2023-03-15T02:28:07.943Z,2.30
2023-03-15T02:30:35.406Z,2.27
2023-03-15T02:33:05.357Z,2.60
2023-03-15T02:35:33.317Z,3.10
2023-03-15T02:37:59.815Z,2.90
2023-03-15T02:40:28.726Z,3.17
2023-03-15T02:43:00.473Z,3.30
2023-03-15T02:45:28.991Z,2.50
2023-03-15T02:47:55.394Z,2.30
2023-03-15T02:50:21.886Z,2.60
2023-03-15T02:52:48.229Z,2.77
2023-03-15T02:55:14.655Z,2.90
2023-03-15T02:57:41.102Z,2.97
2023-03-15T03:00:14.292Z,2.90
2023-03-15T03:02:42.953Z,3.00
2023-03-15T03:05:10.854Z,3.00
2023-03-15T03:07:37.208Z,3.17
2023-03-15T03:10:05.138Z,3.20
2023-03-15T03:12:32.378Z,2.70
2023-03-15T03:14:59.182Z,2.60
2023-03-15T03:17:25.543Z,2.87
2023-03-15T03:19:52.562Z,2.70
2023-03-15T03:22:19.083Z,2.77
2023-03-15T03:24:46.268Z,2.20
2023-03-15T03:27:14.842Z,2.40
2023-03-15T03:29:41.788Z,2.60
2023-03-15T03:32:08.695Z,2.30
2023-03-15T03:34:35.419Z,2.70
2023-03-15T03:37:01.838Z,2.77
2023-03-15T03:39:28.467Z,3.03
2023-03-15T03:41:54.789Z,2.30
2023-03-15T03:44:21.358Z,2.50
2023-03-15T03:46:47.686Z,2.50
2023-03-15T03:49:14.788Z,2.53
2023-03-15T03:51:41.151Z,3.70
2023-03-15T03:54:07.638Z,3.07
2023-03-15T03:56:34.029Z,2.43
2023-03-15T03:59:00.448Z,2.80
2023-03-15T04:01:26.777Z,3.27
2023-03-15T04:03:53.475Z,2.80
2023-03-15T04:06:19.796Z,3.30
2023-03-15T04:08:46.165Z,2.80
2023-03-15T04:11:17.661Z,2.83
2023-03-15T04:13:45.362Z,2.90
2023-03-15T04:16:12.694Z,3.60
2023-03-15T04:18:40.140Z,3.70
2023-03-15T04:21:10.748Z,3.00
2023-03-15T04:23:38.076Z,3.40
2023-03-15T04:26:07.841Z,2.80
2023-03-15T04:28:34.196Z,3.40
2023-03-15T04:31:00.687Z,4.07
2023-03-15T04:33:28.191Z,4.00
2023-03-15T04:35:54.605Z,4.20
2023-03-15T04:38:26.582Z,3.73
2023-03-15T04:40:56.552Z,3.60
2023-03-15T04:43:24.352Z,4.60
2023-03-15T04:45:51.743Z,4.30
2023-03-15T04:48:18.178Z,3.70
2023-03-15T04:50:44.617Z,3.87
2023-03-15T04:53:11.008Z,3.63
2023-03-15T04:55:37.346Z,3.53
2023-03-15T04:58:03.841Z,3.70
2023-03-15T05:00:30.231Z,4.53
2023-03-15T05:02:56.803Z,3.63
2023-03-15T05:05:23.972Z,4.00
2023-03-15T05:07:50.410Z,3.30
2023-03-15T05:10:17.199Z,3.80
2023-03-15T05:12:43.591Z,3.93
2023-03-15T05:15:10.542Z,4.00
2023-03-15T05:17:36.955Z,3.70
2023-03-15T05:20:10.682Z,3.50
2023-03-15T05:22:37.579Z,4.10
2023-03-15T05:25:04.464Z,4.40
2023-03-15T05:27:32.629Z,3.50
2023-03-15T05:29:59.078Z,4.33
2023-03-15T05:32:26.827Z,4.70
2023-03-15T05:34:56.246Z,4.13
2023-03-15T05:37:23.450Z,4.10
2023-03-15T05:39:50.098Z,4.50
2023-03-15T05:42:21.907Z,4.00
2023-03-15T05:44:49.065Z,4.07
2023-03-15T05:47:15.446Z,4.13
2023-03-15T05:49:41.975Z,5.07
2023-03-15T05:52:08.525Z,4.30
2023-03-15T05:54:34.932Z,4.20
2023-03-15T05:57:01.262Z,4.47
2023-03-15T05:59:27.638Z,4.53
2023-03-15T06:01:53.980Z,5.03
2023-03-15T06:04:20.584Z,4.80
2023-03-15T06:06:47.101Z,4.80
2023-03-15T06:09:13.489Z,4.23
2023-03-15T06:11:39.942Z,5.17
2023-03-15T06:14:06.393Z,4.20
2023-03-15T06:16:32.740Z,5.20
2023-03-15T06:18:59.165Z,4.93
2023-03-15T06:21:25.929Z,4.67
2023-03-15T06:23:52.304Z,5.17
2023-03-15T06:26:19.361Z,4.57
2023-03-15T06:28:46.137Z,5.00
2023-03-15T06:31:14.210Z,4.43
2023-03-15T06:33:40.880Z,5.20
2023-03-15T06:36:07.772Z,5.03
2023-03-15T06:38:34.344Z,4.67
2023-03-15T06:41:01.125Z,5.00
2023-03-15T06:43:28.390Z,4.40
2023-03-15T06:45:55.873Z,4.90
2023-03-15T06:48:22.364Z,5.27
2023-03-15T06:50:48.726Z,5.33
2023-03-15T06:53:15.768Z,6.27
2023-03-15T06:55:42.714Z,5.90
2023-03-15T06:58:09.204Z,5.40
2023-03-15T07:00:36.088Z,4.67
2023-03-15T07:03:02.529Z,4.63
2023-03-15T07:05:28.950Z,5.00
2023-03-15T07:07:55.404Z,4.80
2023-03-15T07:10:21.799Z,3.80
2023-03-15T07:12:48.240Z,4.50
2023-03-15T07:15:17.087Z,4.30
2023-03-15T07:17:43.750Z,5.03
2023-03-15T07:20:11.021Z,3.20
2023-03-15T07:22:37.493Z,3.13
2023-03-15T07:25:04.858Z,3.80
2023-03-15T07:27:31.229Z,2.57
2023-03-15T07:29:57.618Z,3.57
2023-03-15T07:32:24.095Z,2.33
2023-03-15T07:34:50.453Z,2.70
2023-03-15T07:37:17.459Z,2.90
2023-03-15T07:39:43.837Z,3.23
2023-03-15T07:42:10.256Z,3.00
2023-03-15T07:44:36.616Z,3.20
2023-03-15T07:47:03.073Z,3.33
2023-03-15T07:49:31.029Z,3.20
2023-03-15T07:51:57.783Z,2.27
2023-03-15T07:54:24.153Z,2.20
2023-03-15T07:56:50.485Z,2.20
2023-03-15T07:59:16.842Z,2.60
2023-03-15T08:01:43.185Z,2.00
2023-03-15T08:04:09.610Z,2.20
2023-03-15T08:06:36.016Z,1.73
2023-03-15T08:09:05.615Z,2.57
2023-03-15T08:11:33.030Z,2.63
2023-03-15T08:13:59.520Z,2.10
2023-03-15T08:16:25.884Z,2.20
2023-03-15T08:18:52.277Z,2.60
2023-03-15T09:03:22.596Z,10.55
2023-03-15T09:12:06.752Z,1.10
2023-03-15T09:14:33.093Z,1.23
2023-03-15T09:16:59.620Z,2.30
2023-03-15T09:19:26.009Z,1.33
2023-03-15T09:21:52.447Z,1.40
2023-03-15T09:24:18.789Z,1.73
2023-03-15T09:27:58.370Z,2.13
2023-03-15T09:30:25.071Z,1.60
2023-03-15T09:32:51.686Z,1.50
2023-03-15T09:35:20.053Z,1.47
2023-03-15T09:37:47.775Z,1.70
2023-03-15T09:40:38.560Z,2.00
2023-03-15T09:43:08.722Z,1.70
2023-03-15T09:46:09.542Z,1.67
2023-03-15T09:48:48.324Z,1.50
2023-03-15T09:51:28.618Z,1.90
2023-03-15T09:54:01.585Z,1.43
2023-03-15T09:56:36.876Z,1.20
2023-03-15T09:59:03.725Z,1.57
2023-03-15T10:01:34.665Z,2.20
2023-03-15T10:04:18.462Z,2.03
2023-03-15T10:06:49.764Z,2.10
2023-03-15T10:09:22.218Z,1.90
2023-03-15T10:12:13.401Z,2.80
2023-03-15T10:14:58.190Z,3.27
2023-03-15T10:17:35.138Z,1.83
2023-03-15T10:20:15.946Z,1.50
2023-03-15T10:22:45.376Z,1.23
2023-03-15T10:25:26.110Z,1.30
2023-03-15T10:27:55.248Z,1.30
2023-03-15T10:30:27.449Z,1.30
2023-03-15T10:32:56.728Z,0.87
2023-03-15T10:35:23.228Z,1.00
2023-03-15T10:37:49.907Z,1.10
2023-03-15T10:40:49.317Z,1.20
2023-03-15T10:43:32.382Z,1.40
2023-03-15T10:46:03.365Z,1.10
2023-03-15T10:48:35.328Z,1.40
2023-03-15T10:51:25.233Z,1.07
2023-03-15T10:53:55.624Z,1.17
2023-03-15T10:56:26.066Z,1.10
2023-03-15T10:59:11.021Z,1.00
2023-03-15T11:01:38.689Z,1.03
2023-03-15T11:04:18.169Z,1.23
2023-03-15T11:07:13.398Z,1.70
2023-03-15T11:09:45.644Z,0.97
2023-03-15T11:12:44.543Z,1.03
2023-03-15T11:15:14.737Z,1.30
2023-03-15T11:17:47.965Z,1.97
2023-03-15T11:20:38.627Z,1.40
2023-03-15T11:23:20.431Z,1.47
2023-03-15T11:25:47.421Z,1.60
2023-03-15T11:28:25.380Z,1.80
2023-03-15T11:30:52.015Z,1.40
2023-03-15T11:33:33.887Z,1.70
2023-03-15T11:36:05.236Z,1.83
2023-03-15T11:38:43.903Z,1.40
2023-03-15T11:41:21.687Z,2.10
2023-03-15T11:43:56.719Z,1.60
2023-03-15T11:46:29.234Z,1.80
2023-03-15T11:49:03.220Z,1.57
2023-03-15T11:51:34.953Z,1.43
2023-03-15T11:54:08.792Z,1.90
2023-03-15T11:56:43.992Z,1.80
2023-03-15T11:59:20.416Z,1.47
2023-03-15T12:01:57.818Z,1.40
2023-03-15T12:04:24.236Z,1.23
2023-03-15T12:06:56.640Z,2.27
2023-03-15T12:09:32.209Z,1.37
2023-03-15T12:12:03.245Z,1.43
2023-03-15T12:14:32.593Z,1.50
2023-03-15T12:17:23.998Z,1.03
2023-03-15T12:20:07.359Z,1.00
2023-03-15T12:22:34.535Z,1.20
2023-03-15T12:25:12.103Z,1.37
2023-03-15T12:27:47.077Z,0.97
2023-03-15T12:30:36.733Z,1.73
2023-03-15T12:33:03.701Z,1.30
2023-03-15T12:35:40.318Z,1.47
2023-03-15T12:38:23.437Z,1.27
2023-03-15T12:40:56.225Z,1.20
2023-03-15T12:43:43.811Z,1.27
2023-03-15T12:46:36.662Z,1.07
2023-03-15T12:49:18.552Z,1.10
2023-03-15T12:51:59.161Z,1.37
2023-03-15T12:54:33.942Z,1.33
2023-03-15T12:57:03.676Z,1.70
2023-03-15T12:59:33.017Z,1.93
2023-03-15T13:02:01.701Z,1.77
2023-03-15T13:04:30.855Z,1.27
2023-03-15T13:07:07.337Z,1.87
2023-03-15T13:09:56.663Z,1.97
2023-03-15T13:12:35.286Z,2.80
2023-03-15T13:15:27.960Z,1.50
2023-03-15T13:17:58.941Z,1.63
2023-03-15T13:20:40.985Z,1.90
2023-03-15T13:23:21.799Z,2.67
2023-03-15T13:25:54.655Z,1.73
2023-03-15T13:28:24.563Z,1.70
2023-03-15T13:30:54.170Z,2.27
2023-03-15T13:33:21.032Z,2.00
2023-03-15T13:35:57.903Z,1.60
2023-03-15T13:38:27.890Z,1.87
2023-03-15T13:40:56.298Z,2.13
2023-03-15T13:43:37.659Z,2.57
2023-03-15T13:46:05.797Z,1.60
2023-03-15T13:48:35.055Z,1.50
2023-03-15T13:51:06.096Z,1.90
2023-03-15T13:53:48.561Z,2.13
2023-03-15T13:56:19.615Z,1.60
2023-03-15T13:58:46.994Z,2.20
2023-03-15T14:01:14.511Z,2.33
2023-03-15T14:03:43.849Z,1.60
2023-03-15T14:06:22.026Z,1.33
2023-03-15T14:08:49.772Z,1.57
2023-03-15T14:11:32.524Z,1.70
2023-03-15T14:14:05.558Z,2.10
2023-03-15T14:16:33.493Z,1.60
2023-03-15T14:19:18.124Z,1.40
2023-03-15T14:21:48.925Z,1.73
2023-03-15T14:24:20.932Z,1.43
2023-03-15T14:26:53.240Z,2.23
2023-03-15T14:29:30.325Z,1.50
2023-03-15T14:32:01.315Z,2.57
2023-03-15T14:34:33.559Z,2.13
2023-03-15T14:37:04.412Z,2.33
2023-03-15T14:39:39.499Z,2.00
2023-03-15T14:42:09.888Z,1.40
2023-03-15T14:44:36.322Z,2.50
2023-03-15T14:47:12.153Z,2.30
2023-03-15T14:49:38.604Z,1.90
2023-03-15T14:52:06.416Z,2.43
2023-03-15T14:54:34.274Z,2.03
2023-03-15T14:57:00.880Z,1.73
2023-03-15T14:59:27.395Z,1.47
2023-03-15T15:01:57.804Z,2.27
2023-03-15T15:04:30.299Z,1.73
2023-03-15T15:06:57.858Z,2.07
2023-03-15T15:09:27.828Z,2.40
2023-03-15T15:11:54.717Z,2.53
2023-03-15T15:14:24.674Z,1.90
2023-03-15T15:16:52.227Z,2.63
2023-03-15T15:19:19.004Z,1.90
2023-03-15T15:21:45.676Z,1.87
2023-03-15T15:24:17.156Z,1.20
2023-03-15T15:26:44.938Z,1.80
2023-03-15T15:29:14.213Z,1.47
2023-03-15T15:31:41.627Z,2.27
2023-03-15T15:34:08.924Z,2.10
2023-03-15T15:36:41.182Z,1.73
2023-03-15T15:39:20.507Z,1.80
2023-03-15T15:41:47.051Z,2.30
2023-03-15T15:44:18.997Z,2.00
2023-03-15T15:46:45.645Z,2.27
2023-03-15T15:49:12.680Z,1.70
2023-03-15T15:51:49.874Z,2.50
2023-03-15T15:54:19.524Z,2.10
2023-03-15T15:56:57.446Z,1.83
2023-03-15T15:59:25.611Z,1.87
2023-03-15T16:02:01.112Z,1.77
2023-03-15T16:04:28.874Z,1.87
2023-03-15T16:06:58.711Z,2.03
2023-03-15T16:09:27.540Z,1.70
2023-03-15T16:11:54.210Z,2.00
2023-03-15T16:14:20.722Z,1.90
2023-03-15T16:16:48.551Z,1.83
2023-03-15T16:19:15.043Z,1.53
2023-03-15T16:21:45.238Z,1.70
2023-03-15T16:24:19.318Z,1.93
2023-03-15T16:26:47.941Z,1.70
2023-03-15T16:29:22.268Z,1.30
2023-03-15T16:31:49.715Z,1.50
2023-03-15T16:34:17.953Z,1.70
2023-03-15T16:36:49.192Z,1.97
2023-03-15T16:39:16.544Z,2.20
2023-03-15T16:41:43.029Z,1.70
2023-03-15T16:44:18.101Z,2.23
2023-03-15T16:46:45.334Z,2.10
2023-03-15T16:49:13.685Z,1.90
2023-03-15T16:51:52.701Z,2.57
2023-03-15T16:54:34.622Z,2.40
2023-03-15T16:57:16.412Z,1.70
2023-03-15T16:59:42.864Z,2.10
2023-03-15T17:02:20.006Z,2.50
2023-03-15T17:04:46.989Z,1.70
2023-03-15T17:07:14.713Z,1.60
2023-03-15T17:09:43.933Z,1.70
2023-03-15T17:12:19.264Z,2.27
2023-03-15T17:14:45.702Z,2.10
2023-03-15T17:17:12.166Z,2.00
2023-03-15T17:19:38.616Z,1.90
2023-03-15T17:22:06.266Z,2.53
2023-03-15T17:24:32.898Z,1.87
2023-03-15T17:26:59.572Z,2.13
2023-03-15T17:29:26.038Z,1.93
2023-03-15T17:31:53.062Z,2.17
2023-03-15T17:34:22.089Z,1.83
2023-03-15T17:36:48.634Z,1.97
2023-03-15T17:39:16.990Z,2.10
2023-03-15T17:41:47.583Z,2.43
2023-03-15T17:44:14.072Z,3.00
2023-03-15T17:46:40.633Z,2.33
2023-03-15T17:49:08.909Z,2.00
2023-03-15T17:51:37.358Z,2.33
2023-03-15T17:54:13.244Z,1.90
2023-03-15T17:56:40.151Z,1.93
2023-03-15T17:59:06.626Z,2.33
2023-03-15T18:01:35.442Z,2.47
2023-03-15T18:04:01.970Z,3.50
2023-03-15T18:06:28.670Z,3.43
2023-03-15T18:08:55.107Z,2.80
2023-03-15T18:11:28.745Z,3.23
2023-03-15T18:13:56.063Z,3.00
2023-03-15T18:16:22.920Z,2.70
2023-03-15T18:18:49.935Z,2.90
2023-03-15T18:21:19.438Z,3.23
2023-03-15T18:23:45.988Z,2.70
2023-03-15T18:26:13.154Z,2.90
2023-03-15T18:28:40.280Z,3.00
2023-03-15T18:31:18.648Z,4.63
2023-03-15T18:33:45.244Z,3.10
2023-03-15T18:36:11.905Z,2.83
2023-03-15T18:38:38.750Z,2.50
2023-03-15T18:41:24.867Z,5.20
2023-03-15T18:43:51.961Z,15.00
2023-03-15T18:46:25.602Z,4.30
2023-03-15T18:48:53.458Z,3.67
2023-03-15T18:51:22.967Z,3.93
2023-03-15T18:53:49.551Z,3.87
2023-03-15T18:56:22.589Z,2.90
2023-03-15T18:58:51.034Z,3.17
2023-03-15T19:01:19.614Z,2.70
2023-03-15T19:03:46.142Z,3.93
2023-03-15T19:06:13.657Z,3.27
2023-03-15T19:08:40.936Z,2.93
2023-03-15T19:11:08.461Z,5.23
2023-03-15T19:13:35.219Z,4.43
2023-03-15T19:16:02.547Z,3.60
2023-03-15T19:18:29.527Z,3.50
2023-03-15T19:20:56.172Z,3.00
2023-03-15T19:23:22.789Z,3.20
2023-03-15T19:25:49.347Z,3.23
2023-03-15T19:28:16.264Z,3.70
2023-03-15T19:30:42.908Z,3.20
2023-03-15T19:33:09.754Z,3.10
2023-03-15T19:35:36.450Z,3.30
2023-03-15T19:38:04.048Z,2.60
2023-03-15T19:40:30.686Z,3.60
2023-03-15T19:42:57.130Z,2.90
2023-03-15T19:45:23.681Z,3.77
2023-03-15T19:47:51.763Z,4.03
2023-03-15T19:50:18.384Z,3.70
2023-03-15T19:52:48.075Z,4.30
2023-03-15T19:55:17.412Z,3.23
2023-03-15T19:57:44.813Z,3.00
2023-03-15T20:00:14.481Z,3.20
2023-03-15T20:02:41.564Z,3.00
2023-03-15T20:05:10.485Z,3.63
2023-03-15T20:07:37.200Z,4.10
2023-03-15T20:10:05.416Z,3.43
2023-03-15T20:12:32.557Z,3.40
2023-03-15T20:14:59.019Z,3.13
2023-03-15T20:17:26.838Z,3.80
2023-03-15T20:19:53.462Z,3.03
2023-03-15T20:22:19.921Z,2.90
2023-03-15T20:24:46.861Z,3.33
2023-03-15T20:27:13.404Z,3.20
2023-03-15T20:29:39.969Z,3.60
2023-03-15T20:32:06.649Z,3.37
2023-03-15T20:34:33.128Z,2.90
2023-03-15T20:37:00.057Z,3.00
2023-03-15T20:39:26.505Z,2.97
2023-03-15T20:41:53.367Z,3.90
2023-03-15T20:44:19.814Z,4.50
2023-03-15T20:46:46.445Z,3.50
2023-03-15T20:49:14.134Z,2.63
2023-03-15T20:51:40.642Z,3.70
2023-03-15T20:54:07.059Z,2.93
2023-03-15T20:56:34.241Z,2.90
2023-03-15T20:59:01.469Z,3.10
2023-03-15T21:01:28.298Z,3.50
2023-03-15T21:03:56.091Z,2.47
2023-03-15T21:06:23.396Z,2.60
2023-03-15T21:08:50.150Z,3.10
2023-03-15T21:11:16.922Z,2.90
2023-03-15T21:13:43.520Z,2.80
2023-03-15T21:16:12.343Z,3.67
2023-03-15T21:18:39.006Z,3.50
2023-03-15T21:21:07.694Z,3.50
2023-03-15T21:23:35.278Z,2.73
2023-03-15T21:26:04.362Z,2.97
2023-03-15T21:28:31.830Z,3.30
2023-03-15T21:30:58.618Z,2.83
2023-03-15T21:33:26.941Z,3.27
2023-03-15T21:35:53.938Z,2.90
2023-03-15T21:38:21.066Z,2.80
2023-03-15T21:40:52.486Z,3.00
2023-03-15T21:43:19.232Z,2.53
2023-03-15T21:45:46.030Z,3.20
2023-03-15T21:48:12.467Z,2.90
2023-03-15T21:50:38.936Z,2.97
2023-03-15T21:53:05.302Z,3.20
2023-03-15T21:55:33.847Z,2.60
2023-03-15T21:58:07.366Z,3.43
2023-03-15T22:00:33.891Z,2.87
2023-03-15T22:03:01.338Z,2.63
2023-03-15T22:05:28.152Z,3.20
2023-03-15T22:07:54.570Z,2.43
2023-03-15T22:10:22.517Z,3.00
2023-03-15T22:12:49.238Z,2.50
2023-03-15T22:15:15.871Z,3.30
2023-03-15T22:17:42.285Z,2.50
2023-03-15T22:20:13.272Z,3.00
2023-03-15T22:22:39.702Z,2.60
2023-03-15T22:25:06.608Z,2.80
2023-03-15T22:27:33.036Z,3.17
2023-03-15T22:29:59.598Z,2.73
2023-03-15T22:32:26.237Z,2.00
2023-03-15T22:34:52.710Z,2.80
2023-03-15T22:37:19.135Z,2.63
2023-03-15T22:39:46.159Z,2.40
2023-03-15T22:42:12.562Z,2.20
2023-03-15T22:44:39.021Z,3.07
2023-03-15T22:47:05.586Z,2.30
2023-03-15T22:49:32.245Z,2.57
2023-03-15T22:51:58.687Z,2.30
2023-03-15T22:54:25.269Z,2.50
2023-03-15T22:56:51.644Z,2.50
2023-03-15T22:59:18.230Z,3.33
2023-03-15T23:01:44.659Z,3.60
2023-03-15T23:04:11.456Z,2.60
2023-03-15T23:06:37.920Z,2.90
2023-03-15T23:09:06.559Z,2.30
2023-03-15T23:11:33.184Z,3.07
2023-03-15T23:13:59.625Z,3.97
2023-03-15T23:16:26.134Z,2.83
2023-03-15T23:18:52.670Z,3.40
2023-03-15T23:21:19.330Z,3.03
2023-03-15T23:23:45.961Z,2.50
2023-03-15T23:26:15.100Z,2.70
2023-03-15T23:28:41.901Z,3.37
2023-03-15T23:31:08.838Z,2.60
2023-03-15T23:33:35.708Z,2.20
2023-03-15T23:36:03.947Z,3.60
2023-03-15T23:38:34.017Z,2.03
2023-03-15T23:41:00.942Z,3.00
2023-03-15T23:43:27.966Z,2.27
2023-03-15T23:45:58.532Z,2.63
2023-03-15T23:48:26.160Z,1.93
2023-03-15T23:50:54.770Z,2.80
2023-03-15T23:53:21.671Z,2.70
2023-03-15T23:55:48.603Z,2.73
2023-03-15T23:58:15.237Z,2.90
